Time;durP1;ratioP1;P1;durP2;ratioP2;P2;SDS_P1;SDS_P2;PMS_P1;PMS_P2;Temp;Humidity;BMP_temperature;BMP_pressure;BME280_temperature;BME280_humidity;BME280_pressure;Samples;Min_cycle;Max_cycle;Signal;HPM_P1;HPM_P2
2020/12/20 00:00:10;;;;;;;23.65;7.50;;;;;;;11.28;81.02;101101.56;5031389;28;20381;-69
2020/12/20 00:02:52;;;;;;;26.55;8.10;;;;;;;11.40;80.90;101101.06;5032476;28;20045;-64
2020/12/20 00:05:20;;;;;;;23.25;7.45;;;;;;;11.42;80.77;101093.28;5031063;28;20042;-71
2020/12/20 00:07:49;;;;;;;19.42;6.68;;;;;;;11.57;80.27;101098.47;5023386;28;20124;-72
2020/12/20 00:10:18;;;;;;;22.88;6.97;;;;;;;11.52;80.49;101087.53;5007652;28;20053;-69
2020/12/20 00:12:47;;;;;;;26.02;6.70;;;;;;;11.65;79.78;101095.81;5021983;28;20056;-66
2020/12/20 00:15:15;;;;;;;29.98;7.15;;;;;;;11.70;79.96;101092.91;5027532;28;20041;-65
2020/12/20 00:17:46;;;;;;;23.65;6.55;;;;;;;11.74;79.67;101101.41;5026755;28;20049;-70
2020/12/20 00:20:13;;;;;;;21.60;6.60;;;;;;;11.51;80.14;101099.69;5027022;28;20052;-70
2020/12/20 00:22:40;;;;;;;30.85;8.07;;;;;;;11.81;79.61;101108.13;5032326;28;20049;-69
2020/12/20 00:25:08;;;;;;;26.75;7.25;;;;;;;11.70;79.40;101103.97;5031010;28;20048;-72
2020/12/20 00:27:35;;;;;;;20.25;6.72;;;;;;;11.75;79.28;101103.03;5026711;28;20045;-72
2020/12/20 00:30:03;;;;;;;32.47;6.60;;;;;;;11.66;80.07;101102.97;5026786;28;20488;-71
2020/12/20 00:32:30;;;;;;;28.73;7.65;;;;;;;11.51;80.42;101102.44;5016141;28;20057;-67
2020/12/20 00:34:57;;;;;;;22.52;6.30;;;;;;;11.71;79.82;101102.84;5023689;28;20304;-71
2020/12/20 00:37:24;;;;;;;24.23;7.15;;;;;;;11.75;79.65;101108.56;5025396;28;20041;-69
2020/12/20 00:39:52;;;;;;;23.92;6.53;;;;;;;11.68;79.64;101103.44;5005030;28;20520;-69
2020/12/20 00:42:19;;;;;;;24.35;6.95;;;;;;;11.79;79.63;101101.28;5022870;28;20045;-70
2020/12/20 00:44:46;;;;;;;24.92;6.35;;;;;;;12.00;78.88;101100.47;4998825;28;20042;-66
2020/12/20 00:47:13;;;;;;;26.40;6.82;;;;;;;11.86;78.91;101098.91;5029297;28;20072;-66
2020/12/20 00:49:41;;;;;;;24.27;7.07;;;;;;;11.89;78.86;101098.28;5030532;28;20401;-70
2020/12/20 00:52:08;;;;;;;25.10;7.13;;;;;;;11.87;78.84;101098.56;5015286;28;20042;-65
2020/12/20 00:54:37;;;;;;;26.38;7.10;;;;;;;11.80;78.76;101103.72;5000980;28;20077;-63
2020/12/20 00:57:08;;;;;;;27.15;6.22;;;;;;;11.91;78.73;101107.88;5029370;28;20389;-65
2020/12/20 00:59:35;;;;;;;26.88;7.07;;;;;;;12.05;78.44;101114.16;5013552;28;20045;-66
2020/12/20 01:02:03;;;;;;;23.95;6.97;;;;;;;11.96;78.09;101105.00;5033250;28;20048;-66
2020/12/20 01:04:31;;;;;;;22.80;6.40;;;;;;;11.84;78.67;101109.44;4982325;28;20401;-63
2020/12/20 01:06:58;;;;;;;24.58;7.07;;;;;;;11.82;78.96;101109.75;5002007;28;20052;-71
2020/12/20 01:09:28;;;;;;;32.08;7.88;;;;;;;11.92;78.83;101108.69;5029910;28;20049;-68
2020/12/20 01:11:57;;;;;;;22.90;6.47;;;;;;;11.77;78.98;101104.34;5015588;28;20489;-67
2020/12/20 01:14:40;;;;;;;22.65;6.07;;;;;;;11.59;79.70;101091.50;5030929;28;20508;-68
2020/12/20 01:17:07;;;;;;;25.60;6.10;;;;;;;11.74;79.26;101104.16;5015199;28;20049;-69
2020/12/20 01:19:42;;;;;;;25.88;6.30;;;;;;;11.75;78.97;101103.84;5014320;28;20056;-63
2020/12/20 01:22:09;;;;;;;25.15;6.60;;;;;;;11.75;78.69;101097.53;5010271;28;20500;-66
2020/12/20 01:24:37;;;;;;;23.90;6.47;;;;;;;11.79;78.83;101101.28;5014243;28;20056;-67
2020/12/20 01:27:11;;;;;;;25.75;6.95;;;;;;;11.79;78.25;101099.34;5028333;28;20056;-66
2020/12/20 01:29:39;;;;;;;25.23;6.10;;;;;;;11.91;78.15;101107.06;4995843;28;20041;-64
2020/12/20 01:32:06;;;;;;;24.70;6.07;;;;;;;11.93;77.89;101107.56;5014111;28;20042;-65
2020/12/20 01:34:35;;;;;;;20.25;6.05;;;;;;;11.77;78.81;101111.84;5025932;28;20042;-69
2020/12/20 01:37:02;;;;;;;18.13;5.72;;;;;;;11.85;78.29;101109.13;5009528;28;20057;-66
2020/12/20 01:39:34;;;;;;;30.92;6.43;;;;;;;11.85;78.52;101103.63;4963965;28;20130;-63
2020/12/20 01:42:01;;;;;;;24.50;5.63;;;;;;;11.82;78.33;101109.75;5022675;28;20056;-69
2020/12/20 01:44:33;;;;;;;31.60;7.30;;;;;;;11.69;78.57;101105.09;5032347;28;20547;-66
2020/12/20 01:47:01;;;;;;;19.95;5.97;;;;;;;11.73;78.85;101102.53;5016657;28;20075;-67
2020/12/20 01:49:29;;;;;;;25.85;6.47;;;;;;;12.05;77.66;101099.53;5024639;28;20396;-66
2020/12/20 01:51:56;;;;;;;25.67;6.28;;;;;;;11.91;77.87;101090.47;5032053;28;20045;-66
2020/12/20 01:54:24;;;;;;;19.88;5.97;;;;;;;11.85;77.95;101097.28;5002306;28;20065;-66
2020/12/20 01:57:03;;;;;;;24.52;6.47;;;;;;;11.92;78.20;101101.25;5016283;28;20494;-66
2020/12/20 01:59:53;;;;;;;32.55;6.38;;;;;;;11.89;78.05;101095.53;5010971;28;20064;-64
2020/12/20 02:02:24;;;;;;;25.75;7.18;;;;;;;11.81;78.48;101099.03;4998543;28;20060;-62
2020/12/20 02:04:52;;;;;;;29.67;6.43;;;;;;;11.72;79.25;101096.19;5032325;28;20057;-66
2020/12/20 02:07:22;;;;;;;30.30;6.67;;;;;;;11.94;78.75;101101.72;5017540;28;20048;-66
2020/12/20 02:09:52;;;;;;;25.88;6.13;;;;;;;11.90;78.12;101095.22;4997095;28;20049;-71
2020/12/20 02:12:25;;;;;;;25.60;6.80;;;;;;;11.90;78.36;101094.38;5011926;28;20057;-71
2020/12/20 02:15:06;;;;;;;30.35;6.55;;;;;;;11.77;78.54;101089.75;4979633;28;20049;-74
2020/12/20 02:17:33;;;;;;;29.45;6.43;;;;;;;11.70;78.83;101094.88;4994600;28;20050;-72
2020/12/20 02:20:17;;;;;;;30.75;6.25;;;;;;;11.70;79.35;101098.44;5010569;28;20050;-70
2020/12/20 02:22:56;;;;;;;25.40;5.93;;;;;;;11.82;79.17;101097.91;4993724;28;20053;-72
2020/12/20 02:25:26;;;;;;;32.20;6.85;;;;;;;12.01;78.38;101091.06;5008825;28;20049;-68
2020/12/20 02:27:59;;;;;;;25.45;6.80;;;;;;;11.92;78.13;101081.91;5012962;28;20069;-71
2020/12/20 02:30:31;;;;;;;25.90;5.80;;;;;;;11.77;78.65;101079.50;5007652;28;20061;-67
2020/12/20 02:32:58;;;;;;;31.20;6.60;;;;;;;11.80;78.40;101086.34;5025838;28;20060;-72
2020/12/20 02:35:26;;;;;;;34.70;7.03;;;;;;;11.92;78.65;101084.69;5011468;28;20046;-69
2020/12/20 02:37:53;;;;;;;30.67;6.68;;;;;;;11.80;78.36;101083.59;4994370;28;20046;-71
2020/12/20 02:40:20;;;;;;;26.48;5.78;;;;;;;11.71;78.64;101082.72;5010444;28;20498;-65
2020/12/20 02:42:56;;;;;;;32.90;6.70;;;;;;;11.70;79.09;101086.59;4997162;28;20052;-72
2020/12/20 02:45:23;;;;;;;30.15;6.63;;;;;;;11.76;78.93;101077.88;5007075;28;20042;-71
2020/12/20 02:47:51;;;;;;;34.00;6.80;;;;;;;11.94;78.40;101085.16;5010318;28;20054;-69
2020/12/20 02:50:34;;;;;;;29.25;6.47;;;;;;;11.79;78.22;101093.00;5008663;28;20057;-68
2020/12/20 02:53:02;;;;;;;29.83;6.47;;;;;;;11.73;78.53;101086.81;5011187;28;20050;-72
2020/12/20 02:55:30;;;;;;;29.85;5.90;;;;;;;11.72;78.66;101087.91;4993971;28;20054;-74
2020/12/20 02:58:07;;;;;;;29.95;5.88;;;;;;;11.67;78.85;101090.78;5010961;28;20049;-70
2020/12/20 03:00:42;;;;;;;38.00;6.88;;;;;;;11.80;78.65;101094.63;4979395;28;20054;-74
2020/12/20 03:03:12;;;;;;;27.23;6.30;;;;;;;11.62;79.05;101095.56;5011486;28;20386;-72
2020/12/20 03:05:42;;;;;;;27.95;6.70;;;;;;;11.71;78.80;101093.75;5015024;28;20054;-69
2020/12/20 03:08:09;;;;;;;25.80;5.78;;;;;;;11.71;78.97;101086.28;4987561;28;20462;-70
2020/12/20 03:10:36;;;;;;;25.42;5.68;;;;;;;11.75;78.74;101092.81;4980059;28;20421;-70
2020/12/20 03:13:04;;;;;;;24.08;5.57;;;;;;;11.78;78.38;101096.88;4979020;28;20050;-69
2020/12/20 03:15:36;;;;;;;24.77;5.75;;;;;;;11.66;79.07;101102.16;4987262;28;20053;-68
2020/12/20 03:18:02;;;;;;;30.77;6.13;;;;;;;11.76;78.91;101107.41;5012515;28;20496;-70
2020/12/20 03:20:31;;;;;;;24.73;5.72;;;;;;;11.67;78.94;101101.00;5002659;28;20072;-69
2020/12/20 03:22:59;;;;;;;30.77;5.70;;;;;;;11.78;78.40;101102.41;5002812;28;20050;-70
2020/12/20 03:25:44;;;;;;;22.85;5.03;;;;;;;11.73;78.60;101108.88;4996093;28;20050;-68
2020/12/20 03:28:37;;;;;;;23.83;5.20;;;;;;;11.68;78.72;101108.19;4994593;28;20054;-69
2020/12/20 03:31:24;;;;;;;31.52;5.40;;;;;;;11.72;78.48;101111.91;5002129;28;20050;-71
2020/12/20 03:34:20;;;;;;;25.45;6.45;;;;;;;11.63;78.86;101105.50;4997712;28;20069;-71
2020/12/20 03:36:59;;;;;;;25.40;6.07;;;;;;;11.66;78.85;101115.94;4993122;28;20050;-71
2020/12/20 03:39:28;;;;;;;27.67;6.18;;;;;;;11.71;78.67;101108.38;4961450;28;20050;-69
2020/12/20 03:41:55;;;;;;;24.60;5.50;;;;;;;11.64;79.02;101107.97;4993602;28;20157;-72
2020/12/20 03:44:24;;;;;;;34.75;6.82;;;;;;;11.82;78.46;101106.97;4996655;28;20061;-64
2020/12/20 03:46:53;;;;;;;28.10;6.05;;;;;;;11.79;78.05;101112.31;4995726;28;20061;-65
2020/12/20 03:49:21;;;;;;;25.58;5.95;;;;;;;11.72;78.27;101106.41;4996152;28;20058;-67
2020/12/20 03:51:48;;;;;;;27.15;5.55;;;;;;;11.62;78.79;101101.91;5009526;28;20054;-66
2020/12/20 03:54:18;;;;;;;;;;;;;;;11.55;78.76;101101.53;4993660;28;20046;-71
2020/12/20 03:56:46;;;;;;;29.15;5.40;;;;;;;11.57;78.79;101104.78;5000677;28;19921;-70
2020/12/20 03:59:16;;;;;;;;;;;;;;;11.39;79.50;101114.03;5013115;28;20054;-68
2020/12/20 04:01:43;;;;;;;28.98;5.82;;;;;;;11.42;79.77;101115.34;4996543;28;20324;-72
2020/12/20 04:04:10;;;;;;;25.80;6.38;;;;;;;11.53;79.47;101114.81;5012315;28;20489;-73
2020/12/20 04:06:40;;;;;;;25.67;6.17;;;;;;;11.60;78.99;101115.22;4995617;28;20567;-73
2020/12/20 04:09:07;;;;;;;27.98;6.47;;;;;;;11.71;78.71;101118.59;4977562;28;20121;-72
2020/12/20 04:12:04;;;;;;;31.85;6.57;;;;;;;11.69;78.50;101121.66;4992324;28;20536;-70
2020/12/20 04:14:32;;;;;;;26.95;5.68;;;;;;;11.64;78.58;101118.16;4975952;28;20058;-69
2020/12/20 04:16:59;;;;;;;28.20;5.55;;;;;;;11.58;78.76;101124.91;4975747;28;20054;-68
2020/12/20 04:19:26;;;;;;;28.10;5.95;;;;;;;11.62;78.75;101124.00;4976587;28;20050;-72
2020/12/20 04:22:01;;;;;;;28.35;5.60;;;;;;;11.55;78.89;101137.41;4973737;28;20050;-70
2020/12/20 04:24:47;;;;;;;24.10;5.72;;;;;;;11.78;78.49;101132.78;4991890;28;20050;-69
2020/12/20 04:27:17;;;;;;;;;;;;;;;11.54;78.78;101140.47;4993507;28;20053;-67
2020/12/20 04:29:53;;;;;;;22.92;5.88;;;;;;;11.85;78.19;101127.63;4990759;28;19921;-69
2020/12/20 04:32:21;;;;;;;29.38;5.63;;;;;;;11.90;77.68;101138.56;4984841;28;20046;-67
2020/12/20 04:34:49;;;;;;;24.10;6.18;;;;;;;11.83;78.00;101135.41;4972569;28;20522;-68
2020/12/20 04:37:16;;;;;;;29.52;6.75;;;;;;;11.73;78.20;101132.88;4986311;28;20057;-68
2020/12/20 04:40:06;;;;;;;32.10;6.85;;;;;;;11.51;79.42;101130.84;4987539;28;20058;-68
2020/12/20 04:42:41;;;;;;;28.98;5.63;;;;;;;11.68;78.76;101135.78;4976026;28;20085;-67
2020/12/20 04:45:10;;;;;;;29.95;5.78;;;;;;;11.55;79.21;101139.31;4987930;28;20055;-68
2020/12/20 04:47:46;;;;;;;26.13;6.00;;;;;;;11.46;79.31;101142.00;4993398;28;20069;-60
2020/12/20 04:50:16;;;;;;;30.95;6.07;;;;;;;11.76;78.93;101138.59;4980347;28;20520;-70
2020/12/20 04:52:46;;;;;;;26.20;5.88;;;;;;;11.75;78.46;101139.72;4996473;28;20421;-71
2020/12/20 04:55:26;;;;;;;34.22;5.97;;;;;;;11.84;78.63;101143.38;4999806;28;20473;-69
2020/12/20 04:58:14;;;;;;;27.98;5.53;;;;;;;11.84;78.15;101145.31;5003925;28;20041;-71
2020/12/20 05:00:41;;;;;;;24.77;5.70;;;;;;;11.72;78.21;101153.31;4980067;28;20409;-64
2020/12/20 05:03:08;;;;;;;31.15;6.07;;;;;;;11.66;78.50;101157.34;4978089;28;20263;-70
2020/12/20 05:05:36;;;;;;;32.63;6.15;;;;;;;11.66;78.10;101152.63;4988881;28;20042;-72
2020/12/20 05:08:03;;;;;;;31.60;6.45;;;;;;;11.68;78.05;101142.09;4992874;28;20057;-72
2020/12/20 05:10:38;;;;;;;26.15;5.28;;;;;;;11.92;76.84;101148.16;4996073;28;20058;-72
2020/12/20 05:13:07;;;;;;;23.65;5.97;;;;;;;11.96;76.52;101153.88;4979735;28;20065;-70
2020/12/20 05:15:34;;;;;;;28.85;6.30;;;;;;;11.74;76.79;101159.34;5006010;28;20044;-72
2020/12/20 05:18:28;;;;;;;27.20;5.35;;;;;;;11.79;77.00;101167.50;4976864;28;20046;-69
2020/12/20 05:21:24;;;;;;;26.00;5.50;;;;;;;11.71;77.04;101159.97;4971243;28;20049;-72
2020/12/20 05:23:51;;;;;;;27.40;5.22;;;;;;;11.77;76.49;101159.53;4995223;28;20050;-67
2020/12/20 05:26:34;;;;;;;25.33;5.43;;;;;;;11.77;76.37;101162.31;4995062;28;20058;-70
2020/12/20 05:29:09;;;;;;;17.77;4.38;;;;;;;11.91;76.13;101156.72;4972062;28;20046;-72
2020/12/20 05:31:39;;;;;;;21.58;5.72;;;;;;;11.74;76.06;101165.69;4999804;28;20053;-69
2020/12/20 05:34:14;;;;;;;28.02;4.55;;;;;;;11.73;75.97;101161.31;5011228;28;20053;-66
2020/12/20 05:36:44;;;;;;;25.80;5.20;;;;;;;11.62;76.36;101168.13;5000214;28;20492;-70
2020/12/20 05:39:36;;;;;;;30.60;6.00;;;;;;;11.73;76.24;101163.25;5032232;28;20156;-69
2020/12/20 05:42:13;;;;;;;22.73;4.63;;;;;;;11.78;75.71;101171.41;5000537;28;20396;-67
2020/12/20 05:44:40;;;;;;;21.08;5.28;;;;;;;11.96;75.67;101174.00;4987959;28;20057;-69
2020/12/20 05:47:14;;;;;;;20.38;4.88;;;;;;;12.10;74.85;101176.75;4998924;28;20057;-67
2020/12/20 05:49:45;;;;;;;22.40;4.57;;;;;;;11.83;75.15;101185.09;5014648;28;20045;-69
2020/12/20 05:52:27;;;;;;;21.48;4.75;;;;;;;11.95;74.87;101177.91;5031143;28;20057;-73
2020/12/20 05:54:54;;;;;;;26.85;5.35;;;;;;;11.98;75.15;101198.53;5014925;28;20053;-72
2020/12/20 05:57:22;;;;;;;24.65;5.15;;;;;;;11.93;74.90;101199.47;5011345;28;20061;-71
2020/12/20 05:59:51;;;;;;;19.48;4.05;;;;;;;11.93;74.52;101188.44;5029634;28;20527;-70
2020/12/20 06:02:19;;;;;;;22.42;5.55;;;;;;;11.83;74.82;101185.91;5031122;28;20060;-70
2020/12/20 06:04:48;;;;;;;18.30;4.20;;;;;;;11.89;74.82;101192.16;4997123;28;20050;-66
2020/12/20 06:07:15;;;;;;;20.65;4.68;;;;;;;11.72;75.51;101184.50;5032309;28;20045;-71
2020/12/20 06:10:02;;;;;;;18.98;4.57;;;;;;;11.57;75.88;101183.97;5026291;28;20050;-71
2020/12/20 06:12:48;;;;;;;23.70;4.70;;;;;;;11.62;75.83;101178.34;5023537;28;20049;-69
2020/12/20 06:15:18;;;;;;;27.02;4.90;;;;;;;11.73;75.59;101175.09;5018013;28;20053;-72
2020/12/20 06:17:54;;;;;;;28.23;5.47;;;;;;;11.55;75.74;101177.94;5032156;28;20045;-72
2020/12/20 06:20:29;;;;;;;29.73;5.70;;;;;;;11.61;75.82;101183.03;4998086;28;20528;-71
2020/12/20 06:22:57;;;;;;;20.65;5.30;;;;;;;11.49;76.13;101188.28;5031565;28;20057;-67
2020/12/20 06:25:26;;;;;;;25.52;5.45;;;;;;;11.52;75.85;101186.84;5030423;28;20401;-68
2020/12/20 06:28:02;;;;;;;27.65;4.70;;;;;;;11.61;75.68;101196.84;5031413;28;20060;-67
2020/12/20 06:30:29;;;;;;;20.17;4.00;;;;;;;11.50;75.40;101192.69;5013909;28;20053;-69
2020/12/20 06:33:00;;;;;;;31.45;5.63;;;;;;;11.37;75.84;101190.72;5016706;28;20120;-64
2020/12/20 06:35:29;;;;;;;26.27;6.88;;;;;;;11.40;76.18;101192.91;4979208;28;20050;-70
2020/12/20 06:37:57;;;;;;;29.83;5.25;;;;;;;11.46;75.90;101188.06;5026488;28;20501;-72
2020/12/20 06:40:27;;;;;;;21.13;5.03;;;;;;;11.52;75.55;101189.63;5027539;28;20052;-68
2020/12/20 06:42:54;;;;;;;29.13;5.47;;;;;;;11.53;75.43;101194.81;5029931;28;20060;-71
2020/12/20 06:45:21;;;;;;;24.42;4.93;;;;;;;11.30;76.04;101193.09;5022959;28;20049;-70
2020/12/20 06:47:52;;;;;;;27.38;4.97;;;;;;;11.29;76.41;101200.56;5002176;28;20401;-66
2020/12/20 06:50:41;;;;;;;27.67;5.30;;;;;;;11.38;76.16;101209.72;5029591;28;20056;-66
2020/12/20 06:53:09;;;;;;;33.27;5.57;;;;;;;11.12;76.96;101214.13;5011710;28;20053;-69
2020/12/20 06:55:36;;;;;;;30.05;5.40;;;;;;;11.11;77.23;101217.19;5010859;28;20633;-72
2020/12/20 06:58:04;;;;;;;29.23;5.40;;;;;;;11.30;76.29;101218.72;5030394;28;20057;-71
2020/12/20 07:00:48;;;;;;;26.05;6.07;;;;;;;11.20;76.74;101221.69;5027327;28;20053;-67
2020/12/20 07:03:20;;;;;;;19.35;4.35;;;;;;;11.34;76.71;101224.44;5027643;28;20552;-71
2020/12/20 07:05:50;;;;;;;26.85;4.90;;;;;;;11.32;76.21;101224.75;5012111;28;20383;-68
2020/12/20 07:08:25;;;;;;;20.67;4.93;;;;;;;11.16;76.90;101228.94;5029749;28;20053;-68
2020/12/20 07:10:52;;;;;;;23.70;4.65;;;;;;;11.09;77.25;101227.69;5029989;28;20049;-72
2020/12/20 07:13:39;;;;;;;31.52;5.82;;;;;;;11.15;77.39;101232.81;5030883;28;20057;-67
2020/12/20 07:16:07;;;;;;;22.92;4.88;;;;;;;11.26;76.73;101225.19;5030214;28;20053;-70
2020/12/20 07:18:53;;;;;;;24.80;5.53;;;;;;;11.15;76.61;101229.25;5031397;28;20045;-68
2020/12/20 07:21:20;;;;;;;21.63;5.68;;;;;;;11.18;76.66;101229.44;5024864;28;20056;-67
2020/12/20 07:23:48;;;;;;;32.67;5.60;;;;;;;11.12;77.20;101244.44;5031710;28;20057;-69
2020/12/20 07:26:15;;;;;;;28.95;5.25;;;;;;;11.07;77.34;101247.28;5027031;28;20045;-70
2020/12/20 07:28:42;;;;;;;27.60;5.65;;;;;;;11.02;76.94;101247.38;5030527;28;20493;-71
2020/12/20 07:31:17;;;;;;;26.85;5.18;;;;;;;10.97;77.54;101246.66;5028711;28;20045;-71
2020/12/20 07:33:45;;;;;;;23.73;4.70;;;;;;;11.00;77.06;101246.88;5013081;28;20050;-66
2020/12/20 07:36:12;;;;;;;24.67;4.55;;;;;;;10.90;77.18;101251.75;5030806;28;20064;-71
2020/12/20 07:38:40;;;;;;;20.00;4.57;;;;;;;10.96;76.96;101245.88;5030685;28;20420;-68
2020/12/20 07:41:10;;;;;;;23.40;4.65;;;;;;;11.13;76.89;101268.16;5012466;28;20410;-71
2020/12/20 07:43:37;;;;;;;23.38;4.00;;;;;;;11.11;76.64;101278.66;5010174;28;20394;-72
2020/12/20 07:46:09;;;;;;;26.02;4.93;;;;;;;11.11;76.53;101261.28;5024389;28;20053;-67
2020/12/20 07:48:37;;;;;;;17.50;4.22;;;;;;;10.95;77.28;101274.53;5001803;28;20493;-70
2020/12/20 07:51:17;;;;;;;23.90;5.05;;;;;;;11.01;77.34;101281.59;5013560;28;20053;-70
2020/12/20 07:53:56;;;;;;;23.35;4.93;;;;;;;11.00;77.18;101285.47;5028987;28;20034;-72
2020/12/20 07:56:37;;;;;;;22.55;4.93;;;;;;;11.11;76.71;101291.63;5007920;28;20532;-68
2020/12/20 07:59:14;;;;;;;24.90;4.50;;;;;;;11.26;76.03;101288.59;5026664;28;20046;-62
2020/12/20 08:01:45;;;;;;;18.15;5.07;;;;;;;11.16;76.22;101278.56;5006824;28;20053;-68
2020/12/20 08:04:13;;;;;;;;;;;;;;;11.30;76.02;101281.34;5028196;28;20045;-67
2020/12/20 08:06:49;;;;;;;27.17;6.43;;;;;;;11.24;76.01;101286.13;5010399;28;19928;-68
2020/12/20 08:09:24;;;;;;;19.75;4.57;;;;;;;11.25;75.43;101282.25;5031726;28;20052;-73
2020/12/20 08:11:53;;;;;;;21.80;5.13;;;;;;;11.34;75.30;101279.63;4992583;28;20053;-68
2020/12/20 08:14:22;;;;;;;23.15;4.03;;;;;;;11.17;75.49;101291.25;5028272;28;20121;-72
2020/12/20 08:16:50;;;;;;;16.92;4.07;;;;;;;11.19;75.34;101300.00;5030078;28;20041;-68
2020/12/20 08:19:20;;;;;;;29.58;4.20;;;;;;;11.32;75.21;101298.41;4983904;28;20054;-70
2020/12/20 08:21:52;;;;;;;21.23;4.45;;;;;;;11.59;74.24;101298.44;5012035;28;20492;-74
2020/12/20 08:24:21;;;;;;;25.80;3.97;;;;;;;11.07;74.84;101301.63;5033683;28;20056;-63
2020/12/20 08:26:49;;;;;;;21.63;4.07;;;;;;;11.16;75.37;101306.13;5008742;28;20048;-68
2020/12/20 08:29:17;;;;;;;25.50;4.18;;;;;;;11.23;75.18;101309.31;5003582;28;20053;-72
2020/12/20 08:31:46;;;;;;;47.50;15.23;;;;;;;11.48;74.72;101301.69;5022291;28;20140;-69
2020/12/20 08:34:15;;;;;;;19.65;4.05;;;;;;;11.74;73.81;101308.38;4998065;28;20049;-69
2020/12/20 08:36:43;;;;;;;32.20;4.47;;;;;;;11.83;73.42;101303.78;5031228;28;20069;-72
2020/12/20 08:39:10;;;;;;;18.63;4.35;;;;;;;11.59;73.19;101308.66;5016175;28;20069;-72
2020/12/20 08:41:37;;;;;;;17.13;3.35;;;;;;;11.56;73.51;101301.00;5019349;28;20068;-68
2020/12/20 08:44:08;;;;;;;19.83;5.13;;;;;;;11.67;73.40;101307.97;5015481;28;20066;-71
2020/12/20 08:46:37;;;;;;;22.88;4.93;;;;;;;11.62;73.45;101316.31;5029059;28;20049;-74
2020/12/20 08:49:11;;;;;;;16.33;4.90;;;;;;;11.53;73.86;101320.91;5024660;28;20061;-77
2020/12/20 08:51:38;;;;;;;43.25;13.98;;;;;;;11.78;73.66;101318.50;5022400;28;20045;-77
2020/12/20 08:54:28;;;;;;;30.60;9.07;;;;;;;12.02;73.13;101321.88;4998429;28;20049;-72
2020/12/20 08:57:01;;;;;;;23.10;4.95;;;;;;;12.02;72.69;101323.81;5009379;28;20046;-76
2020/12/20 08:59:39;;;;;;;23.85;4.50;;;;;;;11.83;73.30;101331.38;5006362;28;20041;-72
2020/12/20 09:02:08;;;;;;;18.92;3.80;;;;;;;11.87;73.18;101333.19;5028042;28;20045;-68
2020/12/20 09:04:37;;;;;;;24.25;5.93;;;;;;;11.80;73.21;101321.75;5006354;28;20045;-76
2020/12/20 09:07:11;;;;;;;20.90;3.95;;;;;;;11.72;73.37;101325.25;5014095;28;20068;-75
2020/12/20 09:09:39;;;;;;;26.45;5.32;;;;;;;11.86;73.57;101317.78;5030623;28;20060;-75
2020/12/20 09:12:17;;;;;;;21.40;4.75;;;;;;;11.98;73.18;101307.03;5019353;28;20056;-73
2020/12/20 09:15:14;;;;;;;25.20;5.38;;;;;;;11.85;73.33;101302.34;5024498;28;20046;-73
2020/12/20 09:17:42;;;;;;;20.60;4.32;;;;;;;11.87;73.34;101305.59;5024025;28;20050;-71
2020/12/20 09:20:12;;;;;;;24.75;4.43;;;;;;;11.84;73.12;101311.75;5019997;28;20041;-75
2020/12/20 09:22:45;;;;;;;;;;;;;;;11.94;73.32;101313.50;5014678;28;20513;-67
2020/12/20 09:25:28;;;;;;;16.55;3.72;;;;;;;12.18;72.75;101319.59;5025307;28;19928;-66
2020/12/20 09:27:58;;;;;;;18.67;4.63;;;;;;;12.31;72.05;101324.25;5021292;28;20049;-68
2020/12/20 09:30:30;;;;;;;22.23;3.92;;;;;;;12.35;71.73;101317.81;5011798;28;20410;-72
2020/12/20 09:32:57;;;;;;;18.70;4.65;;;;;;;12.22;72.12;101321.41;5026253;28;20444;-69
2020/12/20 09:35:25;;;;;;;17.48;4.80;;;;;;;12.48;71.51;101329.16;5001563;28;20062;-74
2020/12/20 09:37:53;;;;;;;21.88;3.90;;;;;;;12.33;70.53;101333.88;5023941;28;20057;-66
2020/12/20 09:40:20;;;;;;;16.48;4.07;;;;;;;12.28;70.95;101336.75;5023327;28;20034;-70
2020/12/20 09:42:47;;;;;;;21.63;3.88;;;;;;;12.34;70.63;101348.53;5028394;28;20073;-73
2020/12/20 09:45:14;;;;;;;21.38;3.90;;;;;;;12.22;70.53;101351.00;5026851;28;20056;-73
2020/12/20 09:47:44;;;;;;;20.10;3.80;;;;;;;12.13;71.06;101344.56;5028443;28;20601;-66
2020/12/20 09:50:13;;;;;;;18.58;4.13;;;;;;;12.14;70.38;101354.47;5020738;28;20514;-71
2020/12/20 09:52:40;;;;;;;17.80;3.80;;;;;;;12.14;70.76;101351.72;5020391;28;20049;-66
2020/12/20 09:55:08;;;;;;;19.83;3.38;;;;;;;12.13;70.35;101355.59;5020938;28;20053;-67
2020/12/20 09:57:35;;;;;;;14.20;3.35;;;;;;;12.16;70.03;101358.56;5021105;28;20045;-69
2020/12/20 10:00:03;;;;;;;19.98;4.40;;;;;;;12.24;69.75;101363.34;5019516;28;20054;-75
2020/12/20 10:02:43;;;;;;;18.70;3.60;;;;;;;12.17;69.90;101371.25;5021535;28;20049;-70
2020/12/20 10:05:10;;;;;;;16.85;3.50;;;;;;;12.24;69.68;101365.28;5010671;28;20052;-76
2020/12/20 10:07:37;;;;;;;20.35;3.78;;;;;;;12.39;69.65;101371.34;5011090;28;20049;-74
2020/12/20 10:10:05;;;;;;;17.92;5.03;;;;;;;12.16;69.90;101371.56;5019936;28;20053;-75
2020/12/20 10:12:36;;;;;;;25.35;6.85;;;;;;;12.23;69.69;101383.84;5020663;28;20518;-66
2020/12/20 10:15:03;;;;;;;22.67;6.85;;;;;;;12.22;69.50;101370.34;5020105;28;20052;-74
2020/12/20 10:17:32;;;;;;;21.15;3.72;;;;;;;12.19;69.84;101381.97;5019865;28;20045;-72
2020/12/20 10:20:05;;;;;;;18.13;3.78;;;;;;;12.28;69.47;101389.25;5002934;28;20049;-66
2020/12/20 10:22:37;;;;;;;19.13;4.07;;;;;;;12.31;68.81;101383.09;4995563;28;20046;-71
2020/12/20 10:25:17;;;;;;;16.58;3.47;;;;;;;12.50;68.65;101380.19;5019843;28;20065;-74
2020/12/20 10:27:45;;;;;;;19.73;4.03;;;;;;;12.27;68.70;101384.03;5017209;28;20057;-77
2020/12/20 10:30:13;;;;;;;14.90;3.58;;;;;;;12.39;68.75;101393.44;5020434;28;20064;-76
2020/12/20 10:32:41;;;;;;;19.33;4.32;;;;;;;12.37;69.17;101398.44;5016040;28;20061;-68
2020/12/20 10:35:16;;;;;;;17.63;4.85;;;;;;;12.68;69.30;101400.53;5009875;28;20049;-65
2020/12/20 10:37:45;;;;;;;17.83;3.85;;;;;;;12.87;67.61;101404.78;5014217;28;20046;-73
2020/12/20 10:40:12;;;;;;;14.00;3.70;;;;;;;12.50;67.89;101396.78;4998383;28;20045;-75
2020/12/20 10:42:40;;;;;;;18.48;3.58;;;;;;;12.35;68.45;101392.41;5017101;28;20053;-71
2020/12/20 10:45:17;;;;;;;20.83;3.25;;;;;;;12.48;68.19;101395.47;5019229;28;20488;-72
2020/12/20 10:47:44;;;;;;;18.38;3.17;;;;;;;12.54;68.21;101389.50;5004201;28;20049;-71
2020/12/20 10:50:13;;;;;;;17.60;3.63;;;;;;;12.55;68.58;101391.16;5025797;28;20061;-74
2020/12/20 10:52:40;;;;;;;17.65;3.95;;;;;;;12.63;67.81;101386.81;5022265;28;20425;-67
2020/12/20 10:55:13;;;;;;;15.15;4.10;;;;;;;12.39;68.23;101389.84;5021557;28;20058;-68
2020/12/20 10:57:47;;;;;;;15.40;3.83;;;;;;;12.71;68.00;101386.09;5010764;28;20061;-74
2020/12/20 11:00:14;;;;;;;18.27;4.07;;;;;;;12.65;67.93;101387.34;5020332;28;20064;-64
2020/12/20 11:02:45;;;;;;;23.65;3.90;;;;;;;12.44;68.36;101386.97;5021776;28;20057;-68
2020/12/20 11:05:28;;;;;;;22.25;3.88;;;;;;;12.55;68.50;101371.81;5020222;28;20523;-69
2020/12/20 11:07:59;;;;;;;16.23;3.20;;;;;;;12.54;67.94;101380.38;5019107;28;20050;-70
2020/12/20 11:10:28;;;;;;;18.55;3.40;;;;;;;12.54;67.64;101378.44;5020041;28;20046;-67
2020/12/20 11:12:55;;;;;;;14.95;3.63;;;;;;;12.58;67.86;101375.88;5016362;28;20049;-66
2020/12/20 11:15:22;;;;;;;14.95;3.22;;;;;;;12.52;67.99;101366.09;5002222;28;20049;-63
2020/12/20 11:17:50;;;;;;;25.98;4.30;;;;;;;12.62;67.45;101371.38;5018968;28;20056;-66
2020/12/20 11:20:24;;;;;;;18.73;4.03;;;;;;;12.71;67.37;101373.06;5018023;28;20053;-67
2020/12/20 11:22:51;;;;;;;21.77;7.15;;;;;;;12.78;67.51;101364.38;5007701;28;20045;-64
2020/12/20 11:25:21;;;;;;;17.95;5.53;;;;;;;12.63;67.60;101371.06;5020920;28;20061;-65
2020/12/20 11:27:48;;;;;;;21.77;4.20;;;;;;;12.59;66.73;101367.28;5000129;28;20045;-63
2020/12/20 11:30:15;;;;;;;19.10;3.90;;;;;;;12.54;67.22;101352.75;5007833;28;20053;-64
2020/12/20 11:32:43;;;;;;;17.33;3.63;;;;;;;12.72;66.90;101344.31;5020528;28;20068;-66
2020/12/20 11:35:10;;;;;;;14.65;3.70;;;;;;;12.78;66.33;101347.78;5023128;28;20053;-63
2020/12/20 11:37:37;;;;;;;17.38;3.55;;;;;;;12.64;66.30;101344.25;4995296;28;20060;-63